createdAt,value
2024-03-28T05:14:23.722Z,5.62
2024-03-28T05:15:23.678Z,5.62
2024-03-28T05:16:23.709Z,5.62
2024-03-28T05:17:23.670Z,11.25
2024-03-28T05:18:23.647Z,11.25
2024-03-28T05:19:23.669Z,16.88
2024-03-28T05:20:23.628Z,16.88
2024-03-28T05:22:23.640Z,22.50
2024-03-28T05:23:23.598Z,22.50
2024-03-28T05:24:23.588Z,28.12
2024-03-28T05:25:23.801Z,28.12
2024-03-28T05:26:23.572Z,28.12
2024-03-28T05:27:28.554Z,33.75
2024-03-28T05:28:23.563Z,28.12
2024-03-28T05:29:23.544Z,28.12
2024-03-28T05:30:23.532Z,28.12
2024-03-28T05:31:23.532Z,28.12
2024-03-28T05:32:23.561Z,28.12
2024-03-28T05:33:23.510Z,28.12
2024-03-28T05:34:23.603Z,28.12
2024-03-28T05:35:23.486Z,33.75
2024-03-28T05:36:23.490Z,33.75
2024-03-28T05:37:23.490Z,39.38
2024-03-28T05:38:23.462Z,45.00
2024-03-28T05:39:23.450Z,45.00
2024-03-28T05:40:23.434Z,45.00
2024-03-28T05:41:23.430Z,45.00
2024-03-28T05:42:26.409Z,39.38
2024-03-28T05:43:23.406Z,39.38
2024-03-28T05:44:23.396Z,33.75
2024-03-28T05:45:23.381Z,33.75
2024-03-28T05:46:23.431Z,33.75
2024-03-28T05:47:23.383Z,33.75
2024-03-28T05:48:23.388Z,33.75
2024-03-28T05:49:23.379Z,33.75
2024-03-28T05:50:23.338Z,33.75
2024-03-28T05:51:23.318Z,33.75
2024-03-28T05:53:23.329Z,28.12
2024-03-28T05:54:23.304Z,28.12
2024-03-28T05:55:23.320Z,28.12
2024-03-28T05:56:23.285Z,28.12
2024-03-28T05:57:26.279Z,39.38
2024-03-28T05:58:23.268Z,45.00
2024-03-28T05:59:23.244Z,50.62
2024-03-28T06:00:23.259Z,50.62
2024-03-28T06:01:23.217Z,61.88
2024-03-28T06:02:23.210Z,67.50
2024-03-28T06:03:25.858Z,78.75
2024-03-28T06:04:23.206Z,95.62
2024-03-28T06:05:23.188Z,118.12
2024-03-28T06:06:23.184Z,135.00
2024-03-28T06:07:23.170Z,140.62
2024-03-28T06:08:23.161Z,146.25
2024-03-28T06:09:23.165Z,146.25
2024-03-28T06:10:23.163Z,146.25
2024-03-28T06:11:23.142Z,146.25
2024-03-28T06:12:26.124Z,140.62
2024-03-28T06:13:23.138Z,135.00
2024-03-28T06:14:23.105Z,129.38
2024-03-28T06:15:23.101Z,123.75
2024-03-28T06:16:23.081Z,112.50
2024-03-28T06:17:23.072Z,112.50
2024-03-28T06:18:23.087Z,106.88
2024-03-28T06:19:23.054Z,112.50
2024-03-28T06:20:23.213Z,106.88
2024-03-28T06:21:23.030Z,106.88
2024-03-28T06:22:25.200Z,106.88
2024-03-28T06:23:23.010Z,112.50
2024-03-28T06:24:23.017Z,112.50
2024-03-28T06:25:23.057Z,106.88
2024-03-28T06:26:22.983Z,106.88
2024-03-28T06:27:25.973Z,112.50
2024-03-28T06:28:22.985Z,112.50
2024-03-28T06:29:22.953Z,118.12
2024-03-28T06:31:22.995Z,123.75
2024-03-28T06:32:22.954Z,123.75
2024-03-28T06:33:22.918Z,118.12
2024-03-28T06:34:22.906Z,112.50
2024-03-28T06:35:22.898Z,106.88
2024-03-28T06:36:22.881Z,106.88
2024-03-28T06:37:22.898Z,106.88
2024-03-28T06:38:22.877Z,101.25
2024-03-28T06:39:22.856Z,95.62
2024-03-28T06:40:22.855Z,90.00
2024-03-28T06:41:22.833Z,84.38
2024-03-28T06:42:25.851Z,78.75
2024-03-28T06:43:22.844Z,78.75
2024-03-28T06:44:22.808Z,78.75
2024-03-28T06:45:22.786Z,73.12
2024-03-28T06:46:22.837Z,67.50
2024-03-28T06:47:22.775Z,56.25
2024-03-28T06:48:22.782Z,56.25
2024-03-28T06:49:22.795Z,56.25
2024-03-28T06:51:22.739Z,56.25
2024-03-28T06:52:22.724Z,56.25
2024-03-28T06:53:22.735Z,67.50
2024-03-28T06:54:22.701Z,73.12
2024-03-28T06:55:22.695Z,73.12
2024-03-28T06:56:22.693Z,73.12
2024-03-28T06:57:25.714Z,78.75
2024-03-28T06:58:22.723Z,84.38
2024-03-28T06:59:22.648Z,90.00
2024-03-28T07:00:22.642Z,95.62
2024-03-28T07:01:22.634Z,95.62
2024-03-28T07:02:22.613Z,95.62
2024-03-28T07:03:22.609Z,95.62
2024-03-28T07:04:22.597Z,95.62
2024-03-28T07:05:22.582Z,95.62
2024-03-28T07:07:22.643Z,101.25
2024-03-28T07:08:22.546Z,95.62
2024-03-28T07:09:22.571Z,95.62
2024-03-28T07:10:22.544Z,95.62
2024-03-28T07:11:22.518Z,95.62
2024-03-28T07:12:25.510Z,90.00
2024-03-28T07:13:22.505Z,78.75
2024-03-28T07:14:22.534Z,73.12
2024-03-28T07:15:22.480Z,67.50
2024-03-28T07:16:22.467Z,73.12
2024-03-28T07:17:22.455Z,67.50
2024-03-28T07:18:22.441Z,67.50
2024-03-28T07:19:22.463Z,61.88
2024-03-28T07:20:22.424Z,61.88
2024-03-28T07:21:22.436Z,56.25
2024-03-28T07:22:22.402Z,56.25
2024-03-28T07:23:22.422Z,56.25
2024-03-28T07:24:22.385Z,56.25
2024-03-28T07:25:22.404Z,56.25
2024-03-28T07:26:22.374Z,61.88
2024-03-28T07:27:25.354Z,67.50
2024-03-28T07:28:22.340Z,73.12
2024-03-28T07:29:22.327Z,84.38
2024-03-28T07:30:22.331Z,90.00
2024-03-28T07:31:22.307Z,90.00
2024-03-28T07:32:22.299Z,95.62
2024-03-28T07:33:22.319Z,90.00
2024-03-28T07:34:22.276Z,90.00
2024-03-28T07:35:23.867Z,95.62
2024-03-28T07:36:22.266Z,101.25
2024-03-28T07:37:22.248Z,95.62
2024-03-28T07:38:22.226Z,84.38
2024-03-28T07:39:22.235Z,73.12
2024-03-28T07:40:22.218Z,61.88
2024-03-28T07:41:22.214Z,56.25
2024-03-28T07:46:44.206Z,50.62
2024-03-28T07:47:52.660Z,50.62
2024-03-28T08:18:08.031Z,95.62
2024-03-28T08:21:24.041Z,118.12
2024-03-28T08:22:24.003Z,123.75
2024-03-28T08:23:24.051Z,135.00
2024-03-28T08:24:23.988Z,163.12
2024-03-28T08:25:23.978Z,180.00
2024-03-28T08:26:23.971Z,196.88
2024-03-28T08:27:23.954Z,202.50
2024-03-28T08:28:23.963Z,202.50
2024-03-28T08:29:23.935Z,202.50
2024-03-28T08:30:26.098Z,208.12
2024-03-28T08:32:23.903Z,202.50
2024-03-28T08:33:23.893Z,196.88
2024-03-28T08:34:26.899Z,185.62
2024-03-28T08:35:23.879Z,202.50
2024-03-28T08:36:23.869Z,208.12
2024-03-28T08:37:23.872Z,219.38
2024-03-28T08:38:23.849Z,191.25
2024-03-28T08:39:23.840Z,174.38
2024-03-28T08:40:28.934Z,174.38
2024-03-28T08:41:23.902Z,191.25
2024-03-28T08:42:23.806Z,208.12
2024-03-28T08:43:23.807Z,241.88
2024-03-28T08:44:23.778Z,253.12
2024-03-28T08:45:23.771Z,230.62
2024-03-28T08:46:23.755Z,213.75
2024-03-28T08:47:23.799Z,213.75
2024-03-28T08:48:23.748Z,309.38
2024-03-28T08:49:26.777Z,331.88
2024-03-28T08:50:23.718Z,337.50
2024-03-28T08:51:23.734Z,343.12
2024-03-28T08:52:23.698Z,337.50
2024-03-28T08:53:23.696Z,315.00
2024-03-28T08:54:23.681Z,298.12
2024-03-28T08:55:23.686Z,298.12
2024-03-28T08:56:23.658Z,309.38
2024-03-28T08:57:23.658Z,309.38
2024-03-28T08:58:23.639Z,309.38
2024-03-28T08:59:23.635Z,298.12
2024-03-28T09:00:23.623Z,298.12
2024-03-28T09:01:23.613Z,303.75
2024-03-28T09:02:23.633Z,337.50
2024-03-28T09:03:23.607Z,348.75
2024-03-28T09:04:26.605Z,360.00
2024-03-28T09:05:23.574Z,348.75
2024-03-28T09:06:23.574Z,371.25
2024-03-28T09:07:23.550Z,382.50
2024-03-28T09:08:23.535Z,376.88
2024-03-28T09:09:23.537Z,382.50
2024-03-28T09:10:23.538Z,388.12
2024-03-28T09:11:23.502Z,410.62
2024-03-28T09:12:23.502Z,427.50
2024-03-28T09:13:23.662Z,438.75
2024-03-28T09:14:23.476Z,444.38
2024-03-28T09:15:23.464Z,427.50
2024-03-28T09:16:23.450Z,393.75
2024-03-28T09:17:23.434Z,337.50
2024-03-28T09:18:23.427Z,343.12
2024-03-28T09:19:26.422Z,399.38
2024-03-28T09:21:23.400Z,433.12
2024-03-28T09:22:23.386Z,433.12
2024-03-28T09:23:23.385Z,444.38
2024-03-28T09:24:23.395Z,450.00
2024-03-28T09:26:23.350Z,461.25
2024-03-28T09:27:23.370Z,472.50
2024-03-28T09:28:23.325Z,489.38
2024-03-28T09:29:23.351Z,500.62
2024-03-28T09:30:23.312Z,500.62
2024-03-28T09:31:23.313Z,495.00
2024-03-28T09:32:23.295Z,483.75
2024-03-28T09:33:23.278Z,478.12
2024-03-28T09:34:26.265Z,472.50
2024-03-28T09:36:23.731Z,466.88
2024-03-28T09:37:23.236Z,444.38
2024-03-28T09:38:23.231Z,421.88
2024-03-28T09:39:23.218Z,393.75
2024-03-28T09:41:23.193Z,348.75
2024-03-28T09:42:23.179Z,298.12
2024-03-28T09:43:23.175Z,236.25
2024-03-28T09:44:23.165Z,236.25
2024-03-28T09:45:23.164Z,253.12
2024-03-28T09:46:23.145Z,241.88
2024-03-28T09:47:23.149Z,264.38
2024-03-28T09:49:34.083Z,286.88
2024-03-28T09:50:23.104Z,286.88
2024-03-28T09:51:23.090Z,337.50
2024-03-28T09:52:23.099Z,360.00
2024-03-28T09:53:23.141Z,360.00
2024-03-28T09:54:23.074Z,365.62
2024-03-28T09:55:23.075Z,343.12
2024-03-28T09:56:23.054Z,303.75
2024-03-28T09:57:23.074Z,326.25
2024-03-28T09:58:23.020Z,326.25
2024-03-28T09:59:23.006Z,264.38
2024-03-28T10:00:23.012Z,253.12
2024-03-28T10:01:22.990Z,236.25
2024-03-28T10:02:22.981Z,236.25
2024-03-28T10:03:22.964Z,230.62
2024-03-28T10:04:26.433Z,208.12
2024-03-28T10:05:22.963Z,213.75
2024-03-28T10:06:22.976Z,230.62
2024-03-28T10:07:22.930Z,247.50
2024-03-28T10:08:22.914Z,230.62
2024-03-28T10:09:22.917Z,213.75
2024-03-28T10:10:22.896Z,230.62
2024-03-28T10:11:22.894Z,230.62
2024-03-28T10:12:22.875Z,191.25
2024-03-28T10:13:22.862Z,157.50
2024-03-28T10:14:22.865Z,151.88
2024-03-28T10:15:22.851Z,163.12
2024-03-28T10:16:22.853Z,174.38
2024-03-28T10:17:22.890Z,208.12
2024-03-28T10:18:22.847Z,213.75
2024-03-28T10:19:25.812Z,196.88
2024-03-28T10:20:23.787Z,196.88
2024-03-28T10:21:22.812Z,202.50
2024-03-28T10:22:22.770Z,208.12
2024-03-28T10:23:22.759Z,202.50
2024-03-28T10:24:22.756Z,230.62
2024-03-28T10:25:22.740Z,213.75
2024-03-28T10:26:22.753Z,213.75
2024-03-28T10:27:25.476Z,253.12
2024-03-28T10:28:22.702Z,247.50
2024-03-28T10:29:22.717Z,258.75
2024-03-28T10:30:22.686Z,320.62
2024-03-28T10:31:22.695Z,382.50
2024-03-28T10:32:22.664Z,427.50
2024-03-28T10:33:22.671Z,466.88
2024-03-28T10:34:25.645Z,455.62
2024-03-28T10:36:22.621Z,556.88
2024-03-28T10:37:23.526Z,590.62
2024-03-28T10:38:23.638Z,607.50
2024-03-28T10:39:22.598Z,618.75
2024-03-28T10:40:22.581Z,618.75
2024-03-28T10:41:22.572Z,630.00
2024-03-28T10:42:22.604Z,641.25
2024-03-28T10:43:24.281Z,658.12
2024-03-28T10:44:22.552Z,680.62
2024-03-28T10:45:22.525Z,686.25
2024-03-28T10:46:22.535Z,680.62
2024-03-28T10:47:22.564Z,708.75
2024-03-28T10:49:25.500Z,759.38
2024-03-28T10:50:22.480Z,781.88
2024-03-28T10:51:22.487Z,804.38
2024-03-28T10:52:22.469Z,832.50
2024-03-28T10:54:23.490Z,860.62
2024-03-28T10:55:22.426Z,838.12
2024-03-28T10:56:22.413Z,810.00
2024-03-28T10:57:22.412Z,787.50
2024-03-28T10:58:22.572Z,765.00
2024-03-28T10:59:22.424Z,748.12
2024-03-28T11:00:22.429Z,731.25
2024-03-28T11:02:22.360Z,691.88
2024-03-28T11:03:22.341Z,635.62
2024-03-28T11:04:25.330Z,562.50
2024-03-28T11:05:22.345Z,511.88
2024-03-28T11:06:22.319Z,495.00
2024-03-28T11:07:22.297Z,506.25
2024-03-28T11:08:22.293Z,495.00
2024-03-28T11:09:22.324Z,466.88
2024-03-28T11:10:22.274Z,444.38
2024-03-28T11:11:22.256Z,438.75
2024-03-28T11:12:22.255Z,450.00
2024-03-28T11:13:23.857Z,444.38
2024-03-28T11:14:22.239Z,410.62
2024-03-28T11:15:22.226Z,376.88
2024-03-28T11:16:22.216Z,343.12
2024-03-28T11:17:22.201Z,354.38
2024-03-28T11:18:22.189Z,382.50
2024-03-28T11:19:25.176Z,405.00
2024-03-28T11:20:22.172Z,427.50
2024-03-28T11:21:22.158Z,461.25
2024-03-28T11:22:22.145Z,506.25
2024-03-28T11:23:22.138Z,573.75
2024-03-28T11:24:22.127Z,630.00
2024-03-28T11:25:22.326Z,663.75
2024-03-28T11:26:22.113Z,680.62
2024-03-28T11:27:24.308Z,703.12
2024-03-28T11:28:22.084Z,725.62
2024-03-28T11:29:22.078Z,725.62
2024-03-28T11:30:22.061Z,703.12
2024-03-28T11:31:22.071Z,658.12
2024-03-28T11:32:22.055Z,641.25
2024-03-28T11:33:22.034Z,646.88
2024-03-28T11:34:25.025Z,635.62
2024-03-28T11:35:22.027Z,607.50
2024-03-28T11:36:22.037Z,613.12
2024-03-28T11:37:22.007Z,669.38
2024-03-28T11:38:21.978Z,708.75
2024-03-28T11:40:22.427Z,646.88
2024-03-28T11:41:21.948Z,579.38
2024-03-28T11:43:22.932Z,528.75
2024-03-28T11:44:21.926Z,551.25
2024-03-28T11:45:21.923Z,585.00
2024-03-28T11:46:21.896Z,652.50
2024-03-28T11:47:21.919Z,714.38
2024-03-28T11:48:21.880Z,765.00
2024-03-28T11:49:24.861Z,798.75
2024-03-28T11:50:25.666Z,810.00
2024-03-28T11:51:21.841Z,798.75
2024-03-28T11:53:21.834Z,815.62
2024-03-28T11:54:21.809Z,821.25
2024-03-28T11:55:21.801Z,804.38
2024-03-28T11:56:21.789Z,776.25
2024-03-28T11:57:21.788Z,770.62
2024-03-28T11:58:22.442Z,748.12
2024-03-28T11:59:21.766Z,725.62
2024-03-28T12:01:21.743Z,669.38
2024-03-28T12:02:21.731Z,675.00
2024-03-28T12:03:21.729Z,708.75
2024-03-28T12:04:24.705Z,770.62
2024-03-28T12:05:21.711Z,821.25
2024-03-28T12:06:21.687Z,866.25
2024-03-28T12:07:21.680Z,877.50
2024-03-28T12:08:22.078Z,883.12
2024-03-28T12:09:21.656Z,883.12
2024-03-28T12:10:21.643Z,916.88
2024-03-28T12:11:21.661Z,1001.25
2024-03-28T12:12:21.639Z,1113.75
2024-03-28T12:13:21.615Z,1243.12
2024-03-28T12:14:21.650Z,1372.50
2024-03-28T12:16:21.596Z,1366.88
2024-03-28T12:17:21.566Z,1282.50
2024-03-28T12:18:21.578Z,1316.25
2024-03-28T12:19:24.556Z,1288.12
2024-03-28T12:21:21.554Z,1648.12
2024-03-28T12:23:21.557Z,1603.12
2024-03-28T12:24:21.496Z,2041.88
2024-03-28T12:25:21.511Z,2418.75
2024-03-28T12:26:23.771Z,1591.88
2024-03-28T12:28:21.458Z,1226.25
2024-03-28T12:29:21.466Z,1113.75
2024-03-28T12:31:21.429Z,1001.25
2024-03-28T12:32:21.434Z,956.25
2024-03-28T12:33:21.461Z,967.50
2024-03-28T12:34:24.401Z,1046.25
2024-03-28T12:35:21.583Z,1096.88
2024-03-28T12:36:29.159Z,1186.88
2024-03-28T12:38:21.350Z,1372.50
2024-03-28T12:39:21.338Z,1209.38
2024-03-28T12:41:21.321Z,1361.25
2024-03-28T12:43:21.300Z,1209.38
2024-03-28T12:44:21.282Z,1074.38
2024-03-28T12:45:24.424Z,1023.75
2024-03-28T12:46:21.261Z,1237.50
2024-03-28T12:48:21.246Z,1321.88
2024-03-28T12:49:24.234Z,1282.50
2024-03-28T12:51:21.237Z,1220.62
2024-03-28T12:52:21.203Z,1248.75
2024-03-28T12:53:21.207Z,1316.25
2024-03-28T12:54:21.195Z,2103.75
2024-03-28T12:56:21.161Z,990.00
2024-03-28T12:57:21.157Z,950.62
2024-03-28T12:58:21.139Z,1282.50
2024-03-28T12:59:21.152Z,1006.88
2024-03-28T13:01:21.110Z,871.88
2024-03-28T13:02:21.148Z,922.50
2024-03-28T13:03:21.096Z,1153.12
2024-03-28T13:04:24.077Z,871.88
2024-03-28T13:05:21.079Z,832.50
2024-03-28T13:06:21.066Z,2885.62
2024-03-28T13:07:21.059Z,2064.38
2024-03-28T13:08:21.035Z,883.12
2024-03-28T13:09:21.029Z,765.00
2024-03-28T13:11:21.007Z,950.62
2024-03-28T13:12:21.001Z,2143.12
2024-03-28T13:13:21.004Z,1580.62
2024-03-28T13:14:20.973Z,646.88
2024-03-28T13:15:20.960Z,691.88
2024-03-28T13:16:20.981Z,1350.00
2024-03-28T13:17:20.937Z,2351.25
2024-03-28T13:18:20.932Z,2368.12
2024-03-28T13:19:23.926Z,2385.00
2024-03-28T13:21:20.925Z,2345.62
2024-03-28T13:22:20.891Z,2328.75
2024-03-28T13:24:20.874Z,2469.38
2024-03-28T13:25:20.854Z,2626.88
2024-03-28T13:26:33.717Z,2716.88
2024-03-28T13:27:38.252Z,2711.25
2024-03-28T13:28:21.823Z,2700.00
2024-03-28T13:29:20.813Z,2671.88
2024-03-28T13:31:20.790Z,2576.25
2024-03-28T13:32:20.953Z,2424.38
2024-03-28T13:34:23.755Z,2188.12
2024-03-28T13:35:20.756Z,2126.25
2024-03-28T13:36:20.759Z,2075.62
2024-03-28T13:37:20.736Z,2143.12
2024-03-28T13:39:20.726Z,2486.25
2024-03-28T13:40:21.686Z,568.12
2024-03-28T13:41:20.793Z,511.88
2024-03-28T13:42:20.676Z,495.00
2024-03-28T13:43:20.718Z,2120.62
2024-03-28T13:44:20.712Z,1974.38
2024-03-28T13:45:20.649Z,2070.00
2024-03-28T13:46:23.231Z,1974.38
2024-03-28T13:47:20.628Z,1951.88
2024-03-28T13:48:20.619Z,2013.75
2024-03-28T13:49:23.617Z,2182.50
2024-03-28T13:50:20.610Z,2306.25
2024-03-28T13:51:20.586Z,2356.88
2024-03-28T13:52:23.910Z,2390.62
2024-03-28T13:54:20.598Z,2385.00
2024-03-28T13:55:20.538Z,2306.25
2024-03-28T13:56:20.527Z,2272.50
2024-03-28T13:57:20.511Z,2452.50
2024-03-28T13:59:20.520Z,2891.25
2024-03-28T14:00:20.484Z,945.00
2024-03-28T14:01:20.474Z,765.00
2024-03-28T14:02:20.492Z,1906.88
2024-03-28T14:03:20.452Z,765.00
2024-03-28T14:04:23.438Z,635.62
2024-03-28T14:05:20.447Z,573.75
2024-03-28T14:06:20.460Z,596.25
2024-03-28T14:07:20.416Z,990.00
2024-03-28T14:08:20.411Z,2475.00
2024-03-28T14:10:20.394Z,2272.50
2024-03-28T14:11:20.377Z,2188.12
2024-03-28T14:13:20.350Z,2092.50
2024-03-28T14:15:20.328Z,528.75
2024-03-28T14:16:20.321Z,720.00
2024-03-28T14:17:20.497Z,2227.50
2024-03-28T14:18:20.298Z,1766.25
2024-03-28T14:19:23.288Z,720.00
2024-03-28T14:20:20.294Z,2109.38
2024-03-28T14:21:20.269Z,2019.38
2024-03-28T14:22:20.263Z,1957.50
2024-03-28T14:23:20.247Z,1873.12
2024-03-28T14:25:20.243Z,1783.12
2024-03-28T14:27:20.204Z,1805.62
2024-03-28T14:28:20.213Z,1833.75
2024-03-28T14:30:20.194Z,1929.38
2024-03-28T14:31:20.179Z,1963.12
2024-03-28T14:32:20.144Z,1940.62
2024-03-28T14:33:20.133Z,1951.88
2024-03-28T14:34:23.134Z,1890.00
2024-03-28T14:36:20.103Z,1794.38
2024-03-28T14:37:20.099Z,1822.50
2024-03-28T14:38:20.087Z,1878.75
2024-03-28T14:39:20.092Z,1963.12
2024-03-28T14:40:20.062Z,2013.75
2024-03-28T14:41:20.058Z,2008.12
2024-03-28T14:42:20.043Z,1940.62
2024-03-28T14:43:20.048Z,1878.75
2024-03-28T14:44:20.037Z,1845.00
2024-03-28T14:46:20.002Z,1760.62
2024-03-28T14:47:19.985Z,1743.75
2024-03-28T14:48:20.041Z,1788.75
2024-03-28T14:49:22.965Z,1811.25
2024-03-28T14:50:19.960Z,1867.50
2024-03-28T14:51:19.941Z,1895.62
2024-03-28T14:52:19.940Z,1878.75
2024-03-28T14:53:19.929Z,1850.62
2024-03-28T14:54:19.909Z,1839.38
2024-03-28T14:55:19.916Z,1856.25
2024-03-28T14:56:19.900Z,1833.75
2024-03-28T14:57:19.884Z,1788.75
2024-03-28T14:58:24.150Z,1721.25
2024-03-28T14:59:20.867Z,1631.25
2024-03-28T15:00:19.848Z,1586.25
2024-03-28T15:01:19.852Z,1648.12
2024-03-28T15:02:19.855Z,1693.12
2024-03-28T15:03:19.826Z,1698.75
2024-03-28T15:04:30.340Z,1704.38
2024-03-28T15:05:20.801Z,1732.50
2024-03-28T15:06:19.790Z,1755.00
2024-03-28T15:07:19.778Z,1704.38
2024-03-28T15:08:19.768Z,1642.50
2024-03-28T15:09:19.759Z,1608.75
2024-03-28T15:10:19.741Z,1558.12
2024-03-28T15:11:19.917Z,1518.75
2024-03-28T15:12:19.729Z,1490.62
2024-03-28T15:13:19.712Z,1485.00
2024-03-28T15:14:19.702Z,1468.12
2024-03-28T15:16:19.680Z,1428.75
2024-03-28T15:17:19.673Z,343.12
2024-03-28T15:18:19.670Z,1378.12
2024-03-28T15:19:22.646Z,1434.38
2024-03-28T15:20:19.639Z,1535.62
2024-03-28T15:21:19.639Z,1580.62
2024-03-28T15:22:19.661Z,410.62
2024-03-28T15:23:19.613Z,1631.25
2024-03-28T15:24:19.606Z,1530.00
2024-03-28T15:25:19.580Z,1501.88
2024-03-28T15:26:19.575Z,1473.75
2024-03-28T15:27:19.571Z,1434.38
2024-03-28T15:28:19.548Z,1445.62
2024-03-28T15:29:19.549Z,1468.12
2024-03-28T15:31:19.520Z,1406.25
2024-03-28T15:32:19.508Z,1366.88
2024-03-28T15:33:19.662Z,1372.50
2024-03-28T15:34:22.497Z,652.50
2024-03-28T15:35:19.485Z,348.75
2024-03-28T15:36:19.484Z,1327.50
2024-03-28T15:38:19.465Z,1451.25
2024-03-28T15:39:19.451Z,1355.62
2024-03-28T15:41:19.411Z,1276.88
2024-03-28T15:43:19.411Z,1175.62
2024-03-28T15:44:19.422Z,1113.75
2024-03-28T15:45:19.426Z,995.62
2024-03-28T15:46:19.371Z,1119.38
2024-03-28T15:47:19.353Z,1198.12
2024-03-28T15:48:19.341Z,1170.00
2024-03-28T15:49:22.523Z,1181.25
2024-03-28T15:50:19.331Z,1192.50
2024-03-28T15:51:19.331Z,1186.88
2024-03-28T15:52:19.303Z,1153.12
2024-03-28T15:53:19.291Z,1108.12
2024-03-28T15:54:19.277Z,1096.88
2024-03-28T15:56:19.256Z,1074.38
2024-03-28T15:57:19.245Z,860.62
2024-03-28T15:58:19.239Z,922.50
2024-03-28T15:59:19.226Z,585.00
2024-03-28T16:00:19.406Z,365.62
2024-03-28T16:01:19.211Z,348.75
2024-03-28T16:02:19.191Z,298.12
2024-03-28T16:03:19.178Z,236.25
2024-03-28T16:04:22.172Z,236.25
2024-03-28T16:06:19.153Z,343.12
2024-03-28T16:07:19.142Z,337.50
2024-03-28T16:08:19.129Z,270.00
2024-03-28T16:09:19.118Z,275.62
2024-03-28T16:10:19.109Z,253.12
2024-03-28T16:11:19.111Z,247.50
2024-03-28T16:12:19.126Z,253.12
2024-03-28T16:14:19.080Z,405.00
2024-03-28T16:15:19.058Z,433.12
2024-03-28T16:16:19.043Z,354.38
2024-03-28T16:17:19.030Z,298.12
2024-03-28T16:18:19.033Z,185.62
2024-03-28T16:19:22.056Z,185.62
2024-03-28T16:21:18.994Z,191.25
2024-03-28T16:22:18.990Z,196.88
2024-03-28T16:24:19.926Z,191.25
2024-03-28T16:25:18.944Z,191.25
2024-03-28T16:26:18.941Z,180.00
2024-03-28T16:27:18.940Z,168.75
2024-03-28T16:29:18.922Z,163.12
2024-03-28T16:31:18.887Z,163.12
2024-03-28T16:32:19.037Z,168.75
2024-03-28T16:33:18.866Z,168.75
2024-03-28T16:34:21.869Z,168.75
2024-03-28T16:35:18.843Z,163.12
2024-03-28T16:36:18.836Z,163.12
2024-03-28T16:37:18.822Z,151.88
2024-03-28T16:38:18.807Z,157.50
2024-03-28T16:40:18.833Z,168.75
2024-03-28T16:41:18.785Z,151.88
2024-03-28T16:42:19.730Z,146.25
2024-03-28T16:43:19.715Z,146.25
2024-03-28T16:44:18.748Z,146.25
2024-03-28T16:45:18.733Z,140.62
2024-03-28T16:46:18.752Z,140.62
2024-03-28T16:47:18.727Z,135.00
2024-03-28T16:48:18.729Z,135.00
2024-03-28T16:49:21.711Z,135.00
2024-03-28T16:50:18.683Z,135.00
2024-03-28T16:51:18.666Z,135.00
2024-03-28T16:52:18.660Z,135.00
2024-03-28T16:53:18.648Z,129.38
2024-03-28T16:54:18.676Z,123.75
2024-03-28T16:55:18.631Z,123.75
2024-03-28T16:56:18.616Z,123.75
2024-03-28T16:57:18.604Z,118.12
2024-03-28T16:58:18.593Z,118.12
2024-03-28T16:59:18.599Z,118.12
2024-03-28T17:00:18.589Z,112.50
2024-03-28T17:01:18.578Z,112.50
2024-03-28T17:02:19.524Z,112.50
2024-03-28T17:04:21.527Z,106.88
2024-03-28T17:05:18.521Z,106.88
2024-03-28T17:06:18.520Z,106.88
2024-03-28T17:07:18.519Z,101.25
2024-03-28T17:08:18.502Z,101.25
2024-03-28T17:09:19.447Z,101.25
2024-03-28T17:10:18.493Z,95.62
2024-03-28T17:11:18.456Z,95.62
2024-03-28T17:12:18.448Z,90.00
2024-03-28T17:13:18.441Z,90.00
2024-03-28T17:15:18.409Z,84.38
2024-03-28T17:16:18.406Z,78.75
2024-03-28T17:17:18.390Z,78.75
2024-03-28T17:18:18.380Z,78.75
2024-03-28T17:19:21.371Z,73.12
2024-03-28T17:20:18.369Z,73.12
2024-03-28T17:21:18.371Z,67.50
2024-03-28T17:22:18.360Z,67.50
2024-03-28T17:23:18.333Z,67.50
2024-03-28T17:24:18.337Z,61.88
2024-03-28T17:25:18.347Z,61.88
2024-03-28T17:26:18.301Z,61.88
2024-03-28T17:27:19.692Z,56.25
2024-03-28T17:28:19.291Z,56.25
2024-03-28T17:29:18.593Z,50.62
2024-03-28T17:31:26.171Z,50.62
2024-03-28T17:33:18.218Z,45.00
2024-03-28T17:34:21.232Z,39.38
2024-03-28T17:36:18.191Z,39.38
2024-03-28T17:37:18.195Z,33.75
2024-03-28T17:38:18.178Z,33.75
2024-03-28T17:40:18.157Z,28.12
2024-03-28T17:41:18.138Z,28.12
2024-03-28T17:43:18.118Z,22.50
2024-03-28T17:44:18.122Z,22.50
2024-03-28T17:45:18.612Z,16.88
2024-03-28T17:46:19.058Z,16.88
2024-03-28T17:48:18.117Z,16.88
2024-03-28T17:49:21.055Z,11.25
2024-03-28T17:50:18.049Z,11.25
2024-03-28T17:51:18.031Z,11.25
2024-03-28T17:53:18.047Z,5.62
2024-03-28T17:54:18.007Z,5.62
2024-03-28T17:55:17.991Z,5.62
2024-03-28T17:56:18.005Z,5.62
2024-03-28T17:57:17.969Z,5.62
2024-03-28T17:59:17.975Z,0.00
2024-03-28T18:01:17.932Z,0.00
2024-03-28T18:03:17.918Z,0.00
2024-03-28T18:04:20.900Z,0.00
2024-03-28T18:06:17.873Z,0.00
2024-03-28T18:07:17.879Z,0.00
2024-03-28T18:09:17.843Z,0.00
2024-03-28T18:11:17.844Z,0.00
2024-03-28T18:12:17.825Z,0.00
2024-03-28T18:13:17.820Z,0.00
2024-03-28T18:14:17.786Z,0.00
2024-03-28T18:15:17.834Z,0.00
2024-03-28T18:16:17.763Z,0.00
2024-03-28T18:17:18.276Z,0.00
2024-03-28T18:19:20.794Z,0.00
2024-03-28T18:21:17.724Z,0.00
2024-03-28T18:22:17.756Z,0.00
2024-03-28T18:24:17.752Z,0.00
2024-03-28T18:26:17.707Z,0.00
2024-03-28T18:28:17.786Z,0.00
2024-03-28T18:29:17.679Z,0.00
2024-03-28T18:31:17.690Z,0.00
2024-03-28T18:32:18.638Z,0.00
2024-03-28T18:33:17.656Z,0.00
2024-03-28T18:34:20.632Z,0.00
2024-03-28T18:35:17.625Z,0.00
2024-03-28T18:36:17.610Z,0.00
2024-03-28T18:38:18.542Z,0.00
2024-03-28T18:39:17.579Z,0.00
2024-03-28T18:40:17.562Z,0.00
2024-03-28T18:41:17.549Z,0.00
2024-03-28T18:42:17.565Z,0.00
2024-03-28T18:43:17.527Z,0.00
2024-03-28T18:44:18.506Z,0.00
2024-03-28T18:45:17.533Z,0.00
2024-03-28T18:46:17.515Z,0.00
2024-03-28T18:47:17.498Z,0.00
2024-03-28T18:49:20.936Z,0.00
2024-03-28T18:50:17.494Z,0.00
2024-03-28T18:51:17.455Z,0.00
2024-03-28T18:52:17.437Z,0.00
2024-03-28T18:53:17.425Z,0.00
2024-03-28T18:54:17.422Z,0.00
2024-03-28T18:55:17.408Z,0.00
2024-03-28T18:56:19.356Z,0.00
2024-03-28T18:57:18.355Z,0.00
2024-03-28T18:58:17.370Z,0.00
2024-03-28T18:59:17.359Z,0.00
2024-03-28T19:00:17.542Z,0.00
2024-03-28T19:01:17.346Z,0.00
2024-03-28T19:02:18.287Z,0.00
2024-03-28T19:04:21.270Z,0.00
2024-03-28T19:05:17.313Z,0.00
2024-03-28T19:06:17.291Z,0.00
2024-03-28T19:07:17.273Z,0.00
2024-03-28T19:08:17.268Z,0.00
2024-03-28T19:09:17.265Z,0.00
2024-03-28T19:10:17.275Z,0.00
2024-03-28T19:11:17.286Z,0.00
2024-03-28T19:12:17.230Z,0.00
2024-03-28T19:13:17.210Z,0.00
2024-03-28T19:14:17.210Z,0.00
2024-03-28T19:15:17.196Z,0.00
2024-03-28T19:16:17.184Z,0.00
2024-03-28T19:17:17.179Z,0.00
2024-03-28T19:18:17.172Z,0.00
2024-03-28T19:19:20.150Z,0.00
2024-03-28T19:21:17.140Z,0.00
2024-03-28T19:22:17.152Z,0.00
2024-03-28T19:23:17.117Z,0.00
2024-03-28T19:24:18.064Z,0.00
2024-03-28T19:25:17.091Z,0.00
2024-03-28T19:26:17.099Z,0.00
2024-03-28T19:27:17.091Z,0.00
2024-03-28T19:28:17.082Z,0.00
2024-03-28T19:29:17.072Z,0.00
2024-03-28T19:30:17.062Z,0.00
2024-03-28T19:31:17.034Z,0.00
2024-03-28T19:32:17.013Z,0.00
2024-03-28T19:33:17.028Z,0.00
2024-03-28T19:34:20.007Z,0.00
2024-03-28T19:35:16.989Z,0.00
2024-03-28T19:36:16.987Z,0.00
2024-03-28T19:37:17.006Z,0.00
2024-03-28T19:38:16.964Z,0.00
2024-03-28T19:39:16.977Z,0.00
2024-03-28T19:40:20.624Z,0.00
2024-03-28T19:41:16.929Z,0.00
2024-03-28T19:42:16.928Z,0.00
2024-03-28T19:44:16.904Z,0.00
2024-03-28T19:45:16.889Z,0.00
2024-03-28T19:46:16.864Z,0.00
2024-03-28T19:47:16.870Z,0.00
2024-03-28T19:48:16.850Z,0.00
2024-03-28T19:49:20.803Z,0.00
2024-03-28T19:50:16.835Z,0.00